sensor_id;sensor_type;location;lat;lon;timestamp;pressure;altitude;pressure_sealevel;temperature;humidity
60817;BME280;51921;51.518;-3.188;2022-09-20T00:02:13;102272.01;;;13.94;59.16
60817;BME280;51921;51.518;-3.188;2022-09-20T00:04:38;102272.37;;;14.42;58.03
60817;BME280;51921;51.518;-3.188;2022-09-20T00:07:04;102272.57;;;13.63;59.94
60817;BME280;51921;51.518;-3.188;2022-09-20T00:09:29;102272.72;;;14.04;58.51
60817;BME280;51921;51.518;-3.188;2022-09-20T00:11:55;102271.88;;;14.70;57.08
60817;BME280;51921;51.518;-3.188;2022-09-20T00:14:20;102267.26;;;14.44;57.53
60817;BME280;51921;51.518;-3.188;2022-09-20T00:16:45;102264.74;;;14.52;57.30
60817;BME280;51921;51.518;-3.188;2022-09-20T00:19:17;102268.09;;;13.45;59.33
60817;BME280;51921;51.518;-3.188;2022-09-20T00:21:36;102265.41;;;14.39;57.28
60817;BME280;51921;51.518;-3.188;2022-09-20T00:24:03;102263.68;;;14.28;57.04
60817;BME280;51921;51.518;-3.188;2022-09-20T00:26:28;102266.04;;;14.11;57.39
60817;BME280;51921;51.518;-3.188;2022-09-20T00:28:53;102268.28;;;14.58;56.10
60817;BME280;51921;51.518;-3.188;2022-09-20T00:31:18;102270.20;;;13.22;59.48
60817;BME280;51921;51.518;-3.188;2022-09-20T00:33:43;102271.50;;;14.45;56.17
60817;BME280;51921;51.518;-3.188;2022-09-20T00:36:09;102274.40;;;14.23;57.19
60817;BME280;51921;51.518;-3.188;2022-09-20T00:38:34;102274.04;;;13.88;57.76
60817;BME280;51921;51.518;-3.188;2022-09-20T00:40:59;102273.23;;;14.14;57.44
60817;BME280;51921;51.518;-3.188;2022-09-20T00:43:35;102270.76;;;12.92;62.42
60817;BME280;51921;51.518;-3.188;2022-09-20T00:45:50;102269.40;;;13.86;57.98
60817;BME280;51921;51.518;-3.188;2022-09-20T00:48:21;102273.10;;;11.87;64.17
60817;BME280;51921;51.518;-3.188;2022-09-20T00:50:43;102273.73;;;13.29;59.81
60817;BME280;51921;51.518;-3.188;2022-09-20T00:53:10;102274.58;;;13.72;58.08
60817;BME280;51921;51.518;-3.188;2022-09-20T00:55:33;102275.50;;;13.50;59.20
60817;BME280;51921;51.518;-3.188;2022-09-20T00:57:58;102272.11;;;13.32;59.55
60817;BME280;51921;51.518;-3.188;2022-09-20T01:00:23;102274.61;;;12.52;63.33
60817;BME280;51921;51.518;-3.188;2022-09-20T01:02:50;102276.81;;;10.71;69.35
60817;BME280;51921;51.518;-3.188;2022-09-20T01:05:14;102280.19;;;10.03;73.64
60817;BME280;51921;51.518;-3.188;2022-09-20T01:07:39;102281.13;;;10.11;73.24
60817;BME280;51921;51.518;-3.188;2022-09-20T01:10:05;102276.10;;;12.70;64.52
60817;BME280;51921;51.518;-3.188;2022-09-20T01:12:31;102275.23;;;13.17;62.52
60817;BME280;51921;51.518;-3.188;2022-09-20T01:14:56;102274.81;;;13.46;60.05
60817;BME280;51921;51.518;-3.188;2022-09-20T01:17:23;102275.64;;;13.92;58.91
60817;BME280;51921;51.518;-3.188;2022-09-20T01:19:53;102274.77;;;13.35;58.62
60817;BME280;51921;51.518;-3.188;2022-09-20T01:22:20;102272.34;;;13.34;59.08
60817;BME280;51921;51.518;-3.188;2022-09-20T01:24:41;102272.85;;;13.88;57.47
60817;BME280;51921;51.518;-3.188;2022-09-20T01:27:12;102274.14;;;13.90;57.39
60817;BME280;51921;51.518;-3.188;2022-09-20T01:29:37;102271.32;;;14.20;56.36
60817;BME280;51921;51.518;-3.188;2022-09-20T01:31:55;102275.53;;;14.39;55.67
60817;BME280;51921;51.518;-3.188;2022-09-20T01:34:25;102274.32;;;13.73;56.44
60817;BME280;51921;51.518;-3.188;2022-09-20T01:36:49;102273.10;;;13.80;57.13
60817;BME280;51921;51.518;-3.188;2022-09-20T01:39:17;102275.57;;;14.25;56.03
60817;BME280;51921;51.518;-3.188;2022-09-20T01:41:38;102275.39;;;13.38;57.66
60817;BME280;51921;51.518;-3.188;2022-09-20T01:44:07;102279.63;;;11.77;62.26
60817;BME280;51921;51.518;-3.188;2022-09-20T01:46:29;102281.01;;;13.12;58.67
60817;BME280;51921;51.518;-3.188;2022-09-20T01:48:58;102283.57;;;13.57;57.63
60817;BME280;51921;51.518;-3.188;2022-09-20T01:51:29;102279.98;;;13.54;56.58
60817;BME280;51921;51.518;-3.188;2022-09-20T01:56:26;102280.25;;;12.47;58.91
60817;BME280;51921;51.518;-3.188;2022-09-20T02:06:03;102274.76;;;13.88;56.10
60817;BME280;51921;51.518;-3.188;2022-09-20T02:08:32;102274.47;;;14.44;54.87
60817;BME280;51921;51.518;-3.188;2022-09-20T02:10:48;102276.96;;;13.92;54.79
60817;BME280;51921;51.518;-3.188;2022-09-20T02:13:10;102276.09;;;13.82;55.51
60817;BME280;51921;51.518;-3.188;2022-09-20T02:18:05;102277.58;;;12.27;58.66
60817;BME280;51921;51.518;-3.188;2022-09-20T02:20:32;102275.61;;;13.37;56.89
60817;BME280;51921;51.518;-3.188;2022-09-20T02:25:22;102273.36;;;13.14;56.97
60817;BME280;51921;51.518;-3.188;2022-09-20T02:27:46;102274.55;;;13.49;56.67
60817;BME280;51921;51.518;-3.188;2022-09-20T02:30:14;102270.86;;;13.34;56.78
60817;BME280;51921;51.518;-3.188;2022-09-20T02:32:44;102270.08;;;13.49;56.37
60817;BME280;51921;51.518;-3.188;2022-09-20T02:35:07;102268.45;;;13.33;56.79
60817;BME280;51921;51.518;-3.188;2022-09-20T02:39:59;102268.66;;;13.38;56.86
60817;BME280;51921;51.518;-3.188;2022-09-20T02:42:13;102267.73;;;13.14;57.54
60817;BME280;51921;51.518;-3.188;2022-09-20T02:44:46;102262.73;;;13.84;55.79
60817;BME280;51921;51.518;-3.188;2022-09-20T02:47:08;102262.08;;;12.99;57.70
60817;BME280;51921;51.518;-3.188;2022-09-20T02:49:32;102262.82;;;13.76;56.25
60817;BME280;51921;51.518;-3.188;2022-09-20T02:51:56;102264.27;;;14.37;54.83
60817;BME280;51921;51.518;-3.188;2022-09-20T02:54:28;102265.88;;;12.33;58.62
60817;BME280;51921;51.518;-3.188;2022-09-20T02:56:50;102264.56;;;13.44;56.37
60817;BME280;51921;51.518;-3.188;2022-09-20T02:59:18;102264.57;;;13.26;57.23
60817;BME280;51921;51.518;-3.188;2022-09-20T03:01:43;102260.85;;;13.27;57.18
60817;BME280;51921;51.518;-3.188;2022-09-20T03:04:10;102257.85;;;13.84;55.93
60817;BME280;51921;51.518;-3.188;2022-09-20T03:06:32;102253.56;;;13.97;55.72
60817;BME280;51921;51.518;-3.188;2022-09-20T03:08:57;102252.80;;;13.70;56.18
60817;BME280;51921;51.518;-3.188;2022-09-20T03:11:26;102253.73;;;13.90;55.64
60817;BME280;51921;51.518;-3.188;2022-09-20T03:13:53;102255.02;;;13.27;56.33
60817;BME280;51921;51.518;-3.188;2022-09-20T03:16:11;102254.75;;;14.21;55.11
60817;BME280;51921;51.518;-3.188;2022-09-20T03:18:40;102253.03;;;13.43;56.14
60817;BME280;51921;51.518;-3.188;2022-09-20T03:21:14;102248.65;;;13.35;56.42
60817;BME280;51921;51.518;-3.188;2022-09-20T03:23:36;102248.02;;;13.41;56.19
60817;BME280;51921;51.518;-3.188;2022-09-20T03:25:54;102243.90;;;13.99;54.78
60817;BME280;51921;51.518;-3.188;2022-09-20T03:28:26;102239.49;;;13.56;55.57
60817;BME280;51921;51.518;-3.188;2022-09-20T03:30:49;102243.97;;;13.28;55.97
60817;BME280;51921;51.518;-3.188;2022-09-20T03:33:11;102242.44;;;13.47;55.01
60817;BME280;51921;51.518;-3.188;2022-09-20T03:35:44;102242.60;;;13.81;54.53
60817;BME280;51921;51.518;-3.188;2022-09-20T03:38:08;102238.34;;;13.82;54.93
60817;BME280;51921;51.518;-3.188;2022-09-20T03:42:50;102239.99;;;13.32;55.67
60817;BME280;51921;51.518;-3.188;2022-09-20T03:45:28;102239.85;;;13.41;55.61
60817;BME280;51921;51.518;-3.188;2022-09-20T03:47:53;102235.64;;;13.67;54.96
60817;BME280;51921;51.518;-3.188;2022-09-20T03:50:14;102237.31;;;13.49;55.52
60817;BME280;51921;51.518;-3.188;2022-09-20T03:52:40;102237.66;;;13.39;56.18
60817;BME280;51921;51.518;-3.188;2022-09-20T03:57:31;102231.66;;;13.70;54.70
60817;BME280;51921;51.518;-3.188;2022-09-20T03:59:57;102231.45;;;13.31;54.89
60817;BME280;51921;51.518;-3.188;2022-09-20T04:02:24;102232.31;;;13.20;55.26
60817;BME280;51921;51.518;-3.188;2022-09-20T04:04:41;102227.75;;;13.14;55.19
60817;BME280;51921;51.518;-3.188;2022-09-20T04:07:11;102225.05;;;13.20;55.78
60817;BME280;51921;51.518;-3.188;2022-09-20T04:09:46;102224.88;;;12.73;56.82
60817;BME280;51921;51.518;-3.188;2022-09-20T04:12:01;102228.24;;;12.44;57.37
60817;BME280;51921;51.518;-3.188;2022-09-20T04:14:25;102223.25;;;12.90;56.33
60817;BME280;51921;51.518;-3.188;2022-09-20T04:16:49;102223.68;;;13.43;55.56
60817;BME280;51921;51.518;-3.188;2022-09-20T04:19:16;102219.99;;;13.46;54.76
60817;BME280;51921;51.518;-3.188;2022-09-20T04:21:40;102220.10;;;12.54;56.33
60817;BME280;51921;51.518;-3.188;2022-09-20T04:24:08;102220.77;;;12.88;55.90
60817;BME280;51921;51.518;-3.188;2022-09-20T04:26:28;102224.54;;;12.94;56.16
60817;BME280;51921;51.518;-3.188;2022-09-20T04:28:55;102222.20;;;13.15;55.84
60817;BME280;51921;51.518;-3.188;2022-09-20T04:31:28;102225.22;;;13.15;55.18
60817;BME280;51921;51.518;-3.188;2022-09-20T04:33:48;102229.23;;;13.45;55.19
60817;BME280;51921;51.518;-3.188;2022-09-20T04:36:16;102229.89;;;12.30;57.99
60817;BME280;51921;51.518;-3.188;2022-09-20T04:38:36;102224.32;;;11.40;60.95
60817;BME280;51921;51.518;-3.188;2022-09-20T04:41:11;102225.10;;;12.68;58.50
60817;BME280;51921;51.518;-3.188;2022-09-20T04:43:43;102223.78;;;13.49;56.61
60817;BME280;51921;51.518;-3.188;2022-09-20T04:46:09;102221.11;;;13.73;55.41
60817;BME280;51921;51.518;-3.188;2022-09-20T04:55:45;102239.95;;;12.44;60.89
60817;BME280;51921;51.518;-3.188;2022-09-20T04:58:15;102237.01;;;12.00;61.29
60817;BME280;51921;51.518;-3.188;2022-09-20T05:00:29;102240.40;;;11.65;63.23
60817;BME280;51921;51.518;-3.188;2022-09-20T05:03:07;102240.28;;;12.34;61.58
60817;BME280;51921;51.518;-3.188;2022-09-20T05:15:07;102242.34;;;13.02;58.86
60817;BME280;51921;51.518;-3.188;2022-09-20T05:17:33;102244.36;;;12.00;60.98
60817;BME280;51921;51.518;-3.188;2022-09-20T05:22:32;102246.43;;;12.64;58.91
60817;BME280;51921;51.518;-3.188;2022-09-20T05:24:52;102248.44;;;12.54;59.81
60817;BME280;51921;51.518;-3.188;2022-09-20T05:27:17;102249.95;;;12.46;60.11
60817;BME280;51921;51.518;-3.188;2022-09-20T05:29:35;102247.78;;;13.15;58.21
60817;BME280;51921;51.518;-3.188;2022-09-20T05:32:01;102248.97;;;11.61;60.86
60817;BME280;51921;51.518;-3.188;2022-09-20T05:34:29;102251.48;;;13.01;58.57
60817;BME280;51921;51.518;-3.188;2022-09-20T05:36:53;102252.28;;;11.48;61.00
60817;BME280;51921;51.518;-3.188;2022-09-20T05:39:26;102253.91;;;12.75;59.03
60817;BME280;51921;51.518;-3.188;2022-09-20T05:41:41;102258.08;;;12.45;58.98
60817;BME280;51921;51.518;-3.188;2022-09-20T05:44:10;102256.40;;;11.83;60.58
60817;BME280;51921;51.518;-3.188;2022-09-20T05:46:38;102259.55;;;12.67;59.59
60817;BME280;51921;51.518;-3.188;2022-09-20T05:48:58;102262.61;;;12.82;58.51
60817;BME280;51921;51.518;-3.188;2022-09-20T05:51:29;102263.18;;;13.35;56.63
60817;BME280;51921;51.518;-3.188;2022-09-20T05:53:59;102263.99;;;12.91;57.63
60817;BME280;51921;51.518;-3.188;2022-09-20T05:56:15;102264.47;;;12.54;58.33
60817;BME280;51921;51.518;-3.188;2022-09-20T05:58:46;102263.48;;;13.05;57.82
60817;BME280;51921;51.518;-3.188;2022-09-20T06:01:06;102264.41;;;12.35;58.99
60817;BME280;51921;51.518;-3.188;2022-09-20T06:03:34;102261.40;;;13.47;56.51
60817;BME280;51921;51.518;-3.188;2022-09-20T06:06:01;102263.39;;;12.93;57.65
60817;BME280;51921;51.518;-3.188;2022-09-20T06:08:31;102265.92;;;12.83;57.70
60817;BME280;51921;51.518;-3.188;2022-09-20T06:10:55;102270.07;;;12.36;58.02
60817;BME280;51921;51.518;-3.188;2022-09-20T06:13:22;102270.77;;;12.59;58.84
60817;BME280;51921;51.518;-3.188;2022-09-20T06:15:39;102273.08;;;12.75;58.20
60817;BME280;51921;51.518;-3.188;2022-09-20T06:18:07;102271.38;;;12.56;58.11
60817;BME280;51921;51.518;-3.188;2022-09-20T06:20:30;102266.98;;;13.28;56.70
60817;BME280;51921;51.518;-3.188;2022-09-20T06:22:53;102266.12;;;13.28;56.41
60817;BME280;51921;51.518;-3.188;2022-09-20T06:25:19;102267.99;;;12.69;57.68
60817;BME280;51921;51.518;-3.188;2022-09-20T06:27:44;102270.84;;;13.34;57.27
60817;BME280;51921;51.518;-3.188;2022-09-20T06:30:14;102270.00;;;13.44;56.65
60817;BME280;51921;51.518;-3.188;2022-09-20T06:32:32;102271.98;;;12.42;58.97
60817;BME280;51921;51.518;-3.188;2022-09-20T06:34:59;102273.56;;;11.96;60.08
60817;BME280;51921;51.518;-3.188;2022-09-20T06:37:37;102272.53;;;12.87;58.56
60817;BME280;51921;51.518;-3.188;2022-09-20T06:39:55;102273.65;;;13.12;57.74
60817;BME280;51921;51.518;-3.188;2022-09-20T06:42:15;102274.05;;;13.80;56.28
60817;BME280;51921;51.518;-3.188;2022-09-20T06:44:40;102282.57;;;13.96;55.36
60817;BME280;51921;51.518;-3.188;2022-09-20T06:47:05;102283.56;;;14.17;54.77
60817;BME280;51921;51.518;-3.188;2022-09-20T06:49:31;102285.28;;;14.04;55.94
60817;BME280;51921;51.518;-3.188;2022-09-20T06:51:56;102288.44;;;13.42;57.23
60817;BME280;51921;51.518;-3.188;2022-09-20T06:54:21;102289.08;;;13.26;57.36
60817;BME280;51921;51.518;-3.188;2022-09-20T06:56:48;102292.65;;;13.44;57.69
60817;BME280;51921;51.518;-3.188;2022-09-20T06:59:13;102291.39;;;13.79;56.47
60817;BME280;51921;51.518;-3.188;2022-09-20T07:01:38;102293.92;;;12.88;57.70
60817;BME280;51921;51.518;-3.188;2022-09-20T07:04:03;102294.95;;;13.07;58.07
60817;BME280;51921;51.518;-3.188;2022-09-20T07:06:29;102297.09;;;13.31;57.63
60817;BME280;51921;51.518;-3.188;2022-09-20T07:08:54;102294.32;;;13.66;57.37
60817;BME280;51921;51.518;-3.188;2022-09-20T07:11:20;102295.53;;;13.62;56.49
60817;BME280;51921;51.518;-3.188;2022-09-20T07:13:49;102299.47;;;13.59;57.34
60817;BME280;51921;51.518;-3.188;2022-09-20T07:16:14;102299.00;;;13.95;57.14
60817;BME280;51921;51.518;-3.188;2022-09-20T07:18:44;102296.79;;;14.01;56.24
60817;BME280;51921;51.518;-3.188;2022-09-20T07:21:02;102294.31;;;13.57;56.97
60817;BME280;51921;51.518;-3.188;2022-09-20T07:23:28;102295.39;;;13.67;57.42
60817;BME280;51921;51.518;-3.188;2022-09-20T07:25:53;102298.09;;;13.10;58.73
60817;BME280;51921;51.518;-3.188;2022-09-20T07:28:18;102299.06;;;12.76;58.76
60817;BME280;51921;51.518;-3.188;2022-09-20T07:30:44;102301.09;;;13.71;57.32
60817;BME280;51921;51.518;-3.188;2022-09-20T07:33:09;102304.49;;;13.91;57.20
60817;BME280;51921;51.518;-3.188;2022-09-20T07:35:34;102306.15;;;13.61;57.51
60817;BME280;51921;51.518;-3.188;2022-09-20T07:37:59;102307.26;;;14.47;56.04
60817;BME280;51921;51.518;-3.188;2022-09-20T07:40:25;102309.18;;;14.27;55.71
60817;BME280;51921;51.518;-3.188;2022-09-20T07:42:50;102307.53;;;14.91;54.58
60817;BME280;51921;51.518;-3.188;2022-09-20T07:45:16;102309.75;;;15.30;54.46
60817;BME280;51921;51.518;-3.188;2022-09-20T07:47:41;102308.38;;;15.40;52.98
60817;BME280;51921;51.518;-3.188;2022-09-20T07:50:08;102311.62;;;15.23;54.75
60817;BME280;51921;51.518;-3.188;2022-09-20T07:52:32;102312.15;;;15.02;54.69
60817;BME280;51921;51.518;-3.188;2022-09-20T07:54:58;102307.99;;;14.56;56.23
60817;BME280;51921;51.518;-3.188;2022-09-20T07:57:23;102308.75;;;15.76;53.16
60817;BME280;51921;51.518;-3.188;2022-09-20T07:59:49;102309.32;;;15.11;55.31
60817;BME280;51921;51.518;-3.188;2022-09-20T08:02:15;102313.86;;;15.23;55.14
60817;BME280;51921;51.518;-3.188;2022-09-20T08:04:40;102312.47;;;14.28;57.87
60817;BME280;51921;51.518;-3.188;2022-09-20T08:07:05;102313.65;;;15.15;55.48
60817;BME280;51921;51.518;-3.188;2022-09-20T08:09:31;102313.47;;;14.35;56.75
60817;BME280;51921;51.518;-3.188;2022-09-20T08:11:56;102313.65;;;13.54;58.48
60817;BME280;51921;51.518;-3.188;2022-09-20T08:14:21;102315.88;;;14.34;56.36
60817;BME280;51921;51.518;-3.188;2022-09-20T08:16:47;102318.85;;;14.85;57.20
60817;BME280;51921;51.518;-3.188;2022-09-20T08:19:15;102316.79;;;15.84;54.90
60817;BME280;51921;51.518;-3.188;2022-09-20T08:21:38;102317.76;;;16.23;53.62
60817;BME280;51921;51.518;-3.188;2022-09-20T08:24:03;102319.04;;;16.17;53.49
60817;BME280;51921;51.518;-3.188;2022-09-20T08:26:29;102318.74;;;16.90;52.39
60817;BME280;51921;51.518;-3.188;2022-09-20T08:28:55;102322.00;;;14.91;55.72
60817;BME280;51921;51.518;-3.188;2022-09-20T08:31:21;102325.33;;;14.27;58.08
60817;BME280;51921;51.518;-3.188;2022-09-20T08:33:46;102325.77;;;15.95;55.45
60817;BME280;51921;51.518;-3.188;2022-09-20T08:36:12;102328.13;;;16.63;53.07
60817;BME280;51921;51.518;-3.188;2022-09-20T08:38:35;102331.20;;;16.20;54.33
60817;BME280;51921;51.518;-3.188;2022-09-20T08:41:03;102332.95;;;16.92;52.32
60817;BME280;51921;51.518;-3.188;2022-09-20T08:43:31;102333.63;;;17.09;51.38
60817;BME280;51921;51.518;-3.188;2022-09-20T08:45:52;102336.27;;;17.82;50.09
60817;BME280;51921;51.518;-3.188;2022-09-20T08:48:17;102340.09;;;17.54;50.61
60817;BME280;51921;51.518;-3.188;2022-09-20T08:50:42;102344.94;;;14.81;58.30
60817;BME280;51921;51.518;-3.188;2022-09-20T08:53:11;102344.56;;;14.88;58.25
60817;BME280;51921;51.518;-3.188;2022-09-20T08:55:33;102346.54;;;16.24;56.13
60817;BME280;51921;51.518;-3.188;2022-09-20T08:57:59;102344.92;;;14.01;60.70
60817;BME280;51921;51.518;-3.188;2022-09-20T09:00:25;102348.33;;;12.22;71.23
60817;BME280;51921;51.518;-3.188;2022-09-20T09:02:51;102349.82;;;11.37;73.09
60817;BME280;51921;51.518;-3.188;2022-09-20T09:05:28;102348.47;;;13.34;66.62
60817;BME280;51921;51.518;-3.188;2022-09-20T09:07:40;102353.24;;;11.89;72.37
60817;BME280;51921;51.518;-3.188;2022-09-20T09:10:07;102352.17;;;13.33;71.07
60817;BME280;51921;51.518;-3.188;2022-09-20T09:12:31;102348.41;;;13.74;66.03
60817;BME280;51921;51.518;-3.188;2022-09-20T09:14:59;102352.21;;;12.22;70.44
60817;BME280;51921;51.518;-3.188;2022-09-20T09:17:24;102362.23;;;10.63;78.19
60817;BME280;51921;51.518;-3.188;2022-09-20T09:19:49;102355.27;;;12.35;77.47
60817;BME280;51921;51.518;-3.188;2022-09-20T09:22:18;102356.56;;;12.50;74.23
60817;BME280;51921;51.518;-3.188;2022-09-20T09:24:38;102362.80;;;11.41;78.86
60817;BME280;51921;51.518;-3.188;2022-09-20T09:27:07;102359.09;;;12.45;75.50
60817;BME280;51921;51.518;-3.188;2022-09-20T09:29:29;102361.76;;;11.56;77.39
60817;BME280;51921;51.518;-3.188;2022-09-20T09:31:54;102364.14;;;10.95;79.67
60817;BME280;51921;51.518;-3.188;2022-09-20T09:34:28;102364.25;;;11.52;78.16
60817;BME280;51921;51.518;-3.188;2022-09-20T09:36:45;102362.79;;;13.37;71.14
60817;BME280;51921;51.518;-3.188;2022-09-20T09:39:16;102367.32;;;13.84;67.82
60817;BME280;51921;51.518;-3.188;2022-09-20T09:41:36;102371.58;;;11.41;78.12
60817;BME280;51921;51.518;-3.188;2022-09-20T09:44:03;102372.72;;;10.88;82.85
60817;BME280;51921;51.518;-3.188;2022-09-20T09:46:30;102372.46;;;12.47;77.52
60817;BME280;51921;51.518;-3.188;2022-09-20T09:49:04;102375.94;;;10.97;80.97
60817;BME280;51921;51.518;-3.188;2022-09-20T09:51:19;102370.66;;;13.85;72.79
60817;BME280;51921;51.518;-3.188;2022-09-20T09:53:44;102366.22;;;13.32;72.34
60817;BME280;51921;51.518;-3.188;2022-09-20T09:56:19;102364.49;;;15.37;65.78
60817;BME280;51921;51.518;-3.188;2022-09-20T09:58:42;102365.08;;;12.10;71.98
60817;BME280;51921;51.518;-3.188;2022-09-20T10:01:01;102366.37;;;11.84;76.55
60817;BME280;51921;51.518;-3.188;2022-09-20T10:03:40;102366.07;;;13.61;74.13
60817;BME280;51921;51.518;-3.188;2022-09-20T10:06:02;102368.02;;;12.58;73.21
60817;BME280;51921;51.518;-3.188;2022-09-20T10:08:24;102371.11;;;15.64;64.17
60817;BME280;51921;51.518;-3.188;2022-09-20T10:10:51;102374.16;;;13.37;69.25
60817;BME280;51921;51.518;-3.188;2022-09-20T10:13:12;102374.01;;;12.71;73.00
60817;BME280;51921;51.518;-3.188;2022-09-20T10:15:37;102374.09;;;12.88;72.29
60817;BME280;51921;51.518;-3.188;2022-09-20T10:18:09;102371.04;;;14.68;65.93
60817;BME280;51921;51.518;-3.188;2022-09-20T10:20:33;102372.95;;;16.13;60.72
60817;BME280;51921;51.518;-3.188;2022-09-20T10:22:54;102367.99;;;16.88;59.42
60817;BME280;51921;51.518;-3.188;2022-09-20T10:25:24;102367.27;;;16.98;57.92
60817;BME280;51921;51.518;-3.188;2022-09-20T10:27:51;102365.87;;;18.16;53.97
60817;BME280;51921;51.518;-3.188;2022-09-20T10:30:10;102365.21;;;18.90;51.71
60817;BME280;51921;51.518;-3.188;2022-09-20T10:32:50;102370.23;;;15.44;56.90
60817;BME280;51921;51.518;-3.188;2022-09-20T10:35:11;102365.43;;;17.47;58.15
60817;BME280;51921;51.518;-3.188;2022-09-20T10:37:25;102362.57;;;17.89;55.50
60817;BME280;51921;51.518;-3.188;2022-09-20T10:39:48;102362.29;;;15.53;59.98
60817;BME280;51921;51.518;-3.188;2022-09-20T10:42:20;102363.60;;;14.57;64.78
60817;BME280;51921;51.518;-3.188;2022-09-20T10:44:48;102360.08;;;12.60;73.03
60817;BME280;51921;51.518;-3.188;2022-09-20T10:47:07;102355.19;;;14.69;69.19
60817;BME280;51921;51.518;-3.188;2022-09-20T10:49:31;102350.60;;;17.26;56.72
60817;BME280;51921;51.518;-3.188;2022-09-20T10:52:02;102349.94;;;18.07;55.92
60817;BME280;51921;51.518;-3.188;2022-09-20T10:54:27;102350.02;;;15.90;57.50
60817;BME280;51921;51.518;-3.188;2022-09-20T10:56:46;102351.03;;;13.68;67.67
60817;BME280;51921;51.518;-3.188;2022-09-20T10:59:18;102350.53;;;17.02;60.18
60817;BME280;51921;51.518;-3.188;2022-09-20T11:01:37;102348.50;;;15.91;60.88
60817;BME280;51921;51.518;-3.188;2022-09-20T11:04:15;102345.72;;;17.79;56.33
60817;BME280;51921;51.518;-3.188;2022-09-20T11:06:34;102340.43;;;17.84;54.77
60817;BME280;51921;51.518;-3.188;2022-09-20T11:08:52;102342.80;;;18.02;54.08
60817;BME280;51921;51.518;-3.188;2022-09-20T11:11:18;102341.09;;;16.12;55.88
60817;BME280;51921;51.518;-3.188;2022-09-20T11:13:46;102346.40;;;14.79;60.52
60817;BME280;51921;51.518;-3.188;2022-09-20T11:16:09;102341.27;;;17.81;53.37
60817;BME280;51921;51.518;-3.188;2022-09-20T11:18:34;102342.62;;;18.80;50.36
60817;BME280;51921;51.518;-3.188;2022-09-20T11:21:02;102347.17;;;18.10;52.09
60817;BME280;51921;51.518;-3.188;2022-09-20T11:23:23;102345.59;;;17.40;50.94
60817;BME280;51921;51.518;-3.188;2022-09-20T11:25:48;102345.94;;;18.41;49.92
60817;BME280;51921;51.518;-3.188;2022-09-20T11:28:15;102341.36;;;18.13;47.81
60817;BME280;51921;51.518;-3.188;2022-09-20T11:30:40;102340.27;;;17.26;50.48
60817;BME280;51921;51.518;-3.188;2022-09-20T11:33:06;102340.82;;;18.42;45.66
60817;BME280;51921;51.518;-3.188;2022-09-20T11:35:32;102344.67;;;20.14;42.97
60817;BME280;51921;51.518;-3.188;2022-09-20T11:37:59;102342.36;;;17.50;47.61
60817;BME280;51921;51.518;-3.188;2022-09-20T11:40:24;102342.80;;;18.82;46.08
60817;BME280;51921;51.518;-3.188;2022-09-20T11:42:44;102345.29;;;19.19;45.64
60817;BME280;51921;51.518;-3.188;2022-09-20T11:45:10;102345.19;;;17.78;46.62
60817;BME280;51921;51.518;-3.188;2022-09-20T11:47:38;102344.26;;;17.72;49.12
60817;BME280;51921;51.518;-3.188;2022-09-20T11:50:25;102340.38;;;18.27;49.40
60817;BME280;51921;51.518;-3.188;2022-09-20T11:52:36;102344.75;;;16.87;53.06
60817;BME280;51921;51.518;-3.188;2022-09-20T11:57:16;102343.85;;;16.93;50.17
60817;BME280;51921;51.518;-3.188;2022-09-20T11:59:48;102343.44;;;17.23;52.63
60817;BME280;51921;51.518;-3.188;2022-09-20T12:02:17;102345.99;;;16.47;55.58
60817;BME280;51921;51.518;-3.188;2022-09-20T12:04:33;102342.61;;;18.94;49.65
60817;BME280;51921;51.518;-3.188;2022-09-20T12:07:00;102343.42;;;19.68;45.45
60817;BME280;51921;51.518;-3.188;2022-09-20T12:09:26;102342.45;;;19.76;43.90
60817;BME280;51921;51.518;-3.188;2022-09-20T12:11:48;102338.27;;;20.03;43.79
60817;BME280;51921;51.518;-3.188;2022-09-20T12:14:17;102330.45;;;21.08;40.60
60817;BME280;51921;51.518;-3.188;2022-09-20T12:16:40;102330.63;;;20.46;41.51
60817;BME280;51921;51.518;-3.188;2022-09-20T12:19:05;102327.84;;;20.43;40.66
60817;BME280;51921;51.518;-3.188;2022-09-20T12:21:29;102324.85;;;19.59;40.55
60817;BME280;51921;51.518;-3.188;2022-09-20T12:24:01;102318.70;;;18.68;41.56
60817;BME280;51921;51.518;-3.188;2022-09-20T12:26:35;102318.46;;;18.88;39.81
60817;BME280;51921;51.518;-3.188;2022-09-20T12:28:47;102316.37;;;19.17;39.89
60817;BME280;51921;51.518;-3.188;2022-09-20T12:36:16;102316.30;;;18.44;38.88
60817;BME280;51921;51.518;-3.188;2022-09-20T12:38:31;102318.71;;;18.98;37.20
60817;BME280;51921;51.518;-3.188;2022-09-20T12:41:00;102321.15;;;19.48;38.26
60817;BME280;51921;51.518;-3.188;2022-09-20T12:43:19;102319.74;;;20.37;36.20
60817;BME280;51921;51.518;-3.188;2022-09-20T12:45:51;102317.94;;;17.28;39.51
60817;BME280;51921;51.518;-3.188;2022-09-20T12:48:17;102317.54;;;16.03;43.85
60817;BME280;51921;51.518;-3.188;2022-09-20T12:50:34;102312.70;;;18.30;44.11
60817;BME280;51921;51.518;-3.188;2022-09-20T12:53:01;102318.63;;;19.32;40.42
60817;BME280;51921;51.518;-3.188;2022-09-20T12:55:32;102316.28;;;19.56;39.14
60817;BME280;51921;51.518;-3.188;2022-09-20T12:57:51;102318.09;;;19.93;39.12
60817;BME280;51921;51.518;-3.188;2022-09-20T13:07:35;102316.42;;;19.64;44.38
60817;BME280;51921;51.518;-3.188;2022-09-20T13:09:57;102313.04;;;19.82;44.10
60817;BME280;51921;51.518;-3.188;2022-09-20T13:12:22;102309.70;;;19.08;45.20
60817;BME280;51921;51.518;-3.188;2022-09-20T13:14:48;102306.93;;;19.12;45.42
60817;BME280;51921;51.518;-3.188;2022-09-20T13:17:21;102305.76;;;18.68;45.31
60817;BME280;51921;51.518;-3.188;2022-09-20T13:19:42;102306.31;;;18.84;45.55
60817;BME280;51921;51.518;-3.188;2022-09-20T13:22:10;102308.33;;;19.09;44.75
60817;BME280;51921;51.518;-3.188;2022-09-20T13:24:32;102304.87;;;18.57;45.16
60817;BME280;51921;51.518;-3.188;2022-09-20T13:26:58;102307.99;;;18.75;45.10